Time;durP1;ratioP1;P1;durP2;ratioP2;P2;SDS_P1;SDS_P2;PMS_P1;PMS_P2;Temp;Humidity;BMP_temperature;BMP_pressure;BME280_temperature;BME280_humidity;BME280_pressure;Samples;Min_cycle;Max_cycle;Signal;HPM_P1;HPM_P2
2021/12/14 00:01:44;;;;;;;2.80;2.60;;;20.40;57.30;;;;;;4997266;28;20042;-59
2021/12/14 00:04:25;;;;;;;2.63;2.30;;;20.40;57.30;;;;;;4996913;28;20054;-59
2021/12/14 00:06:51;;;;;;;3.10;2.80;;;20.40;57.20;;;;;;4995915;28;20128;-59
2021/12/14 00:09:25;;;;;;;3.25;2.50;;;20.40;57.20;;;;;;4996396;28;20049;-59
2021/12/14 00:12:13;;;;;;;3.75;2.63;;;20.40;57.20;;;;;;4995755;28;20398;-59
2021/12/14 00:17:11;;;;;;;4.22;3.08;;;20.40;57.20;;;;;;4997305;28;20046;-59
2021/12/14 00:19:37;;;;;;;3.95;2.70;;;20.40;57.10;;;;;;4994760;28;20113;-60
2021/12/14 00:22:20;;;;;;;3.53;2.75;;;20.40;57.10;;;;;;4995568;28;20054;-60
2021/12/14 00:24:46;;;;;;;2.85;2.38;;;20.40;57.40;;;;;;4996586;28;20057;-60
2021/12/14 00:27:13;;;;;;;3.80;2.63;;;20.40;57.00;;;;;;4996275;28;20042;-60
2021/12/14 00:29:49;;;;;;;2.80;2.60;;;20.40;56.90;;;;;;4996409;28;20078;-60
2021/12/14 00:32:19;;;;;;;3.17;2.60;;;20.40;56.90;;;;;;4995395;28;20047;-61
2021/12/14 00:34:50;;;;;;;2.92;2.63;;;20.40;56.80;;;;;;4996336;28;20042;-61
2021/12/14 00:37:21;;;;;;;3.15;2.83;;;20.40;56.70;;;;;;4996290;28;20042;-60
2021/12/14 00:39:49;;;;;;;2.72;2.53;;;20.40;56.80;;;;;;4995132;28;20096;-60
2021/12/14 00:42:15;;;;;;;3.05;2.75;;;20.30;56.70;;;;;;4995839;28;20433;-61
2021/12/14 00:44:42;;;;;;;3.88;2.85;;;20.30;56.70;;;;;;4994968;28;20525;-61
2021/12/14 00:47:08;;;;;;;2.90;2.70;;;20.30;56.60;;;;;;4996560;28;20045;-61
2021/12/14 00:49:34;;;;;;;3.10;2.80;;;20.30;56.50;;;;;;4995988;28;20038;-61
2021/12/14 00:52:00;;;;;;;3.00;2.80;;;20.30;56.50;;;;;;4996044;28;20058;-61
2021/12/14 00:54:26;;;;;;;4.80;3.10;;;20.30;56.50;;;;;;4996025;28;20042;-61
2021/12/14 00:56:53;;;;;;;3.25;2.80;;;20.30;56.50;;;;;;4995893;28;20049;-61
2021/12/14 00:59:20;;;;;;;2.97;2.78;;;20.30;56.40;;;;;;4996313;28;20088;-61
2021/12/14 01:01:55;;;;;;;2.78;2.40;;;20.30;56.40;;;;;;4996331;28;20053;-60
2021/12/14 01:04:25;;;;;;;3.67;2.63;;;20.30;56.30;;;;;;4995563;28;20549;-60
2021/12/14 01:06:52;;;;;;;2.85;2.50;;;20.30;56.30;;;;;;4995787;28;20043;-61
2021/12/14 01:09:25;;;;;;;3.05;2.75;;;20.30;56.90;;;;;;4995711;28;20050;-61
2021/12/14 01:11:52;;;;;;;3.80;2.85;;;20.30;56.20;;;;;;4995714;28;20354;-61
2021/12/14 01:14:41;;;;;;;4.50;3.10;;;20.30;56.20;;;;;;4996147;28;20054;-61
2021/12/14 01:17:25;;;;;;;4.28;3.00;;;20.30;56.10;;;;;;4995577;28;20137;-60
2021/12/14 01:19:55;;;;;;;3.47;2.72;;;20.20;56.10;;;;;;4995073;28;20069;-61
2021/12/14 01:22:48;;;;;;;3.97;3.10;;;20.20;56.20;;;;;;4995415;28;20054;-60
2021/12/14 01:25:19;;;;;;;4.68;3.08;;;20.20;56.10;;;;;;4995002;28;20492;-61
2021/12/14 01:27:53;;;;;;;3.08;2.78;;;20.20;56.10;;;;;;4995242;28;20041;-61
2021/12/14 01:30:41;;;;;;;3.30;3.00;;;20.20;56.00;;;;;;4995284;28;20050;-60
2021/12/14 01:33:11;;;;;;;4.70;2.72;;;20.20;56.10;;;;;;4995283;28;20167;-61
2021/12/14 01:35:41;;;;;;;3.97;3.03;;;20.20;56.20;;;;;;4995280;28;20042;-60
2021/12/14 01:38:21;;;;;;;3.67;2.90;;;20.20;56.30;;;;;;4984821;28;20462;-61
2021/12/14 01:40:55;;;;;;;4.57;2.88;;;20.20;56.30;;;;;;4975697;28;20150;-60
2021/12/14 01:43:51;;;;;;;3.15;2.88;;;20.20;56.50;;;;;;4975647;28;20142;-61
2021/12/14 01:46:33;;;;;;;4.45;2.80;;;20.20;56.40;;;;;;4976040;28;20082;-61
2021/12/14 01:49:06;;;;;;;2.90;2.70;;;20.20;56.50;;;;;;4975849;28;20042;-61
2021/12/14 01:51:34;;;;;;;3.22;2.92;;;20.20;56.50;;;;;;4976038;28;20069;-60
2021/12/14 01:54:02;;;;;;;3.47;3.10;;;20.20;56.40;;;;;;4975406;28;20035;-61
2021/12/14 01:56:29;;;;;;;4.15;3.03;;;20.20;56.50;;;;;;4975302;28;20498;-60
2021/12/14 01:58:59;;;;;;;3.50;3.20;;;20.20;56.40;;;;;;4975323;28;20042;-60
2021/12/14 02:01:37;;;;;;;3.20;2.90;;;20.20;56.30;;;;;;4975014;28;20454;-60
2021/12/14 02:04:17;;;;;;;3.25;2.88;;;20.20;56.30;;;;;;4975752;28;20053;-61
2021/12/14 02:06:44;;;;;;;3.40;3.10;;;20.10;56.20;;;;;;4974878;28;20038;-60
2021/12/14 02:09:17;;;;;;;3.40;3.03;;;20.10;56.20;;;;;;4975129;28;20050;-60
2021/12/14 02:11:50;;;;;;;3.15;2.85;;;20.10;56.20;;;;;;4973986;28;20057;-60
2021/12/14 02:14:16;;;;;;;4.63;3.45;;;20.10;56.20;;;;;;4975086;28;20042;-60
2021/12/14 02:16:43;;;;;;;3.58;3.05;;;20.10;56.10;;;;;;4975505;28;20039;-61
2021/12/14 02:19:13;;;;;;;3.40;3.10;;;20.10;56.10;;;;;;4974009;28;20167;-60
2021/12/14 02:21:41;;;;;;;4.25;3.30;;;20.10;56.10;;;;;;4973966;28;20386;-61
2021/12/14 02:24:09;;;;;;;3.80;3.40;;;20.10;56.00;;;;;;4974963;28;20046;-60
2021/12/14 02:26:38;;;;;;;3.83;3.10;;;20.10;56.00;;;;;;4973965;28;20050;-61
2021/12/14 02:29:06;;;;;;;3.50;3.20;;;20.10;56.10;;;;;;4975348;28;20200;-61
2021/12/14 02:31:37;;;;;;;3.60;3.30;;;20.10;56.10;;;;;;4972585;28;20042;-60
2021/12/14 02:34:05;;;;;;;3.42;3.13;;;20.10;56.00;;;;;;4974881;28;20054;-61
2021/12/14 02:36:46;;;;;;;4.47;3.47;;;20.10;56.00;;;;;;4974845;28;20039;-61
2021/12/14 02:39:47;;;;;;;4.53;3.42;;;20.10;55.90;;;;;;4974629;28;20062;-61
2021/12/14 02:42:21;;;;;;;3.42;3.13;;;20.10;56.00;;;;;;4974599;28;20146;-60
2021/12/14 02:44:49;;;;;;;4.25;3.85;;;20.00;55.90;;;;;;4974088;28;20085;-60
2021/12/14 02:47:17;;;;;;;3.63;3.33;;;20.00;55.80;;;;;;4973396;28;20047;-60
2021/12/14 02:49:44;;;;;;;3.17;2.88;;;20.00;55.80;;;;;;4974650;28;20541;-60
2021/12/14 02:52:14;;;;;;;4.15;3.47;;;20.00;55.80;;;;;;4973311;28;20101;-60
2021/12/14 02:54:44;;;;;;;3.72;3.42;;;20.00;55.80;;;;;;4975346;28;20054;-60
2021/12/14 02:57:17;;;;;;;4.43;3.70;;;20.00;55.80;;;;;;4974676;28;20054;-60
2021/12/14 02:59:45;;;;;;;3.42;3.13;;;20.00;55.70;;;;;;4974495;28;20047;-60
2021/12/14 03:02:15;;;;;;;3.63;3.33;;;20.00;55.80;;;;;;4984253;28;20405;-60
2021/12/14 03:04:44;;;;;;;3.97;3.63;;;20.00;55.70;;;;;;4994770;28;20054;-60
2021/12/14 03:07:12;;;;;;;4.22;3.83;;;20.00;55.80;;;;;;4994091;28;20035;-60
2021/12/14 03:09:59;;;;;;;4.18;3.20;;;20.00;55.80;;;;;;4993607;28;20397;-60
2021/12/14 03:12:32;;;;;;;3.90;3.60;;;20.00;55.70;;;;;;4992583;28;20038;-60
2021/12/14 03:15:06;;;;;;;4.13;3.65;;;20.00;55.70;;;;;;4993944;28;20153;-61
2021/12/14 03:17:32;;;;;;;6.57;3.72;;;20.00;55.70;;;;;;4992594;28;20081;-62
2021/12/14 03:20:03;;;;;;;3.97;3.42;;;20.00;55.70;;;;;;4992685;28;20176;-61
2021/12/14 03:22:35;;;;;;;4.22;3.85;;;20.00;55.60;;;;;;4993822;28;20062;-60
2021/12/14 03:25:01;;;;;;;4.28;3.88;;;20.00;55.70;;;;;;4994299;28;20131;-60
2021/12/14 03:27:27;;;;;;;4.72;3.70;;;19.90;55.50;;;;;;4992356;28;20175;-60
2021/12/14 03:29:53;;;;;;;4.38;3.90;;;19.90;55.50;;;;;;4993709;28;20050;-60
2021/12/14 03:32:19;;;;;;;3.55;3.10;;;20.00;55.50;;;;;;4993743;28;20057;-60
2021/12/14 03:34:45;;;;;;;4.82;3.92;;;20.00;55.50;;;;;;4993639;28;20409;-60
2021/12/14 03:37:15;;;;;;;5.38;4.10;;;20.00;55.50;;;;;;4993650;28;20038;-60
2021/12/14 03:39:45;;;;;;;4.30;3.90;;;20.00;55.50;;;;;;4993664;28;20038;-60
2021/12/14 03:42:25;;;;;;;5.55;3.45;;;20.00;55.50;;;;;;4995210;28;20050;-60
2021/12/14 03:44:55;;;;;;;4.80;4.35;;;19.90;55.40;;;;;;4996091;28;20082;-61
2021/12/14 03:47:26;;;;;;;7.63;3.92;;;19.90;55.40;;;;;;4997604;28;20085;-61
2021/12/14 03:49:59;;;;;;;4.35;3.80;;;19.90;55.40;;;;;;4997184;28;20042;-60
2021/12/14 03:52:29;;;;;;;5.22;3.83;;;19.90;55.40;;;;;;5012712;28;20042;-61
2021/12/14 03:54:57;;;;;;;6.37;4.50;;;19.90;55.30;;;;;;4997897;28;20050;-61
2021/12/14 03:57:22;;;;;;;4.55;4.10;;;19.90;55.20;;;;;;4997000;28;20042;-60
2021/12/14 03:59:48;;;;;;;4.47;3.88;;;19.90;55.20;;;;;;4996956;28;20089;-61
2021/12/14 04:02:17;;;;;;;5.05;4.18;;;19.90;55.30;;;;;;4996872;28;20050;-61
2021/12/14 04:04:50;;;;;;;5.90;4.20;;;19.90;55.30;;;;;;4996919;28;20042;-60
2021/12/14 04:07:17;;;;;;;5.80;4.60;;;19.90;55.30;;;;;;4995251;28;20397;-60
2021/12/14 04:09:43;;;;;;;5.43;4.30;;;19.90;55.20;;;;;;4996746;28;20111;-60
2021/12/14 04:12:14;;;;;;;4.35;3.65;;;19.90;55.20;;;;;;4996764;28;20042;-60
2021/12/14 04:14:42;;;;;;;4.55;4.15;;;19.90;55.20;;;;;;4996752;28;20180;-60
2021/12/14 04:17:10;;;;;;;5.45;3.90;;;19.90;55.20;;;;;;4996265;28;20042;-60
2021/12/14 04:19:36;;;;;;;4.40;4.00;;;19.90;55.20;;;;;;4996338;28;20046;-59
2021/12/14 04:22:08;;;;;;;5.28;4.20;;;19.90;55.20;;;;;;4996860;28;20046;-61
2021/12/14 04:24:37;;;;;;;4.68;4.28;;;19.90;55.20;;;;;;4995838;28;20093;-60
2021/12/14 04:27:06;;;;;;;4.72;4.20;;;19.90;55.20;;;;;;4996318;28;20469;-61
2021/12/14 04:29:32;;;;;;;4.60;3.88;;;19.80;55.10;;;;;;4996403;28;20086;-61
2021/12/14 04:31:59;;;;;;;4.80;4.35;;;19.80;55.10;;;;;;4997175;28;20042;-60
2021/12/14 04:34:28;;;;;;;4.47;4.07;;;19.80;55.00;;;;;;4995507;28;20053;-60
2021/12/14 04:36:55;;;;;;;5.70;4.13;;;19.80;55.00;;;;;;4994774;28;20428;-60
2021/12/14 04:53:10;;;;;;;5.25;4.75;;;19.80;55.00;;;;;;4989856;28;20108;-59
2021/12/14 04:55:44;;;;;;;5.30;4.65;;;19.80;55.00;;;;;;4996015;28;20428;-59
2021/12/14 04:58:10;;;;;;;5.93;4.50;;;19.70;54.90;;;;;;4995954;28;20042;-59
2021/12/14 05:00:48;;;;;;;5.65;4.90;;;19.80;55.00;;;;;;4995431;28;20515;-59
2021/12/14 05:03:18;;;;;;;4.45;4.10;;;19.80;54.80;;;;;;4995885;28;20085;-59
2021/12/14 05:05:48;;;;;;;5.20;4.70;;;19.80;54.90;;;;;;4996086;28;20042;-59
2021/12/14 05:10:55;;;;;;;4.60;4.20;;;19.80;54.90;;;;;;4996436;28;20086;-59
2021/12/14 05:13:30;;;;;;;5.65;4.65;;;19.80;54.80;;;;;;4996180;28;20061;-59
2021/12/14 05:15:56;;;;;;;5.07;4.63;;;19.70;54.70;;;;;;4995595;28;20046;-59
2021/12/14 05:18:22;;;;;;;4.97;4.57;;;19.70;54.80;;;;;;4994797;28;20038;-59
2021/12/14 05:20:49;;;;;;;5.30;4.80;;;19.70;54.70;;;;;;4994528;28;20101;-59
2021/12/14 05:23:21;;;;;;;5.13;4.63;;;19.70;54.70;;;;;;4994682;28;20042;-59
2021/12/14 05:25:47;;;;;;;5.85;4.53;;;19.80;54.80;;;;;;4995300;28;20100;-59
2021/12/14 05:28:15;;;;;;;5.10;4.70;;;19.70;54.70;;;;;;4994063;28;20041;-59
2021/12/14 05:30:44;;;;;;;6.38;4.97;;;19.70;54.70;;;;;;4995265;28;20062;-59
2021/12/14 05:33:15;;;;;;;5.63;4.75;;;19.70;54.60;;;;;;4995736;28;20045;-59
2021/12/14 05:35:45;;;;;;;5.13;4.55;;;19.80;54.60;;;;;;4994244;28;20046;-59
2021/12/14 05:38:15;;;;;;;4.97;4.35;;;19.80;54.60;;;;;;4995170;28;20042;-59
2021/12/14 05:43:25;;;;;;;4.57;4.03;;;19.70;54.80;;;;;;4995127;28;20050;-59
2021/12/14 05:45:55;;;;;;;4.90;4.38;;;19.80;54.90;;;;;;4994268;28;20137;-59
2021/12/14 05:48:33;;;;;;;4.85;4.25;;;19.70;54.80;;;;;;4995079;28;20088;-59
2021/12/14 05:51:03;;;;;;;4.88;4.38;;;19.70;54.80;;;;;;4995399;28;20481;-59
2021/12/14 05:53:32;;;;;;;4.28;3.90;;;19.80;54.90;;;;;;4994827;28;20053;-59
2021/12/14 05:56:01;;;;;;;5.22;4.38;;;19.80;55.00;;;;;;4994834;28;20469;-59
2021/12/14 05:58:28;;;;;;;5.13;4.63;;;19.80;55.00;;;;;;4995259;28;20450;-64
2021/12/14 06:00:57;;;;;;;4.63;4.20;;;19.80;55.00;;;;;;4994802;28;20129;-59
2021/12/14 06:03:35;;;;;;;5.00;3.55;;;19.80;55.10;;;;;;4994728;28;20042;-58
2021/12/14 06:06:02;;;;;;;4.28;3.88;;;19.80;55.30;;;;;;4994601;28;20466;-58
2021/12/14 06:08:31;;;;;;;5.00;4.43;;;19.80;55.30;;;;;;4995104;28;20093;-59
2021/12/14 06:10:57;;;;;;;4.22;3.92;;;19.80;55.20;;;;;;4995113;28;20061;-59
2021/12/14 06:13:43;;;;;;;4.50;4.10;;;19.80;55.30;;;;;;4994769;28;20046;-60
2021/12/14 06:16:24;;;;;;;5.68;5.18;;;19.90;55.30;;;;;;4993526;28;20038;-59
2021/12/14 06:18:50;;;;;;;4.50;4.10;;;19.80;55.40;;;;;;4994997;28;20057;-59
2021/12/14 06:21:18;;;;;;;4.50;4.10;;;19.80;55.50;;;;;;4994837;28;20072;-59
2021/12/14 06:23:44;;;;;;;4.32;3.92;;;19.90;55.50;;;;;;4994457;28;20057;-60
2021/12/14 06:26:09;;;;;;;4.35;3.95;;;19.80;55.50;;;;;;4994151;28;20042;-59
2021/12/14 06:28:35;;;;;;;4.25;3.83;;;19.90;55.60;;;;;;4994426;28;20045;-61
2021/12/14 06:31:01;;;;;;;4.47;4.07;;;19.90;55.60;;;;;;4994329;28;20389;-61
2021/12/14 06:33:30;;;;;;;4.60;4.20;;;19.90;55.60;;;;;;4994998;28;20077;-61
2021/12/14 06:35:59;;;;;;;4.47;4.07;;;19.90;55.70;;;;;;4994189;28;20113;-61
2021/12/14 06:38:28;;;;;;;4.70;4.20;;;19.90;55.70;;;;;;4994206;28;20118;-61
2021/12/14 06:41:00;;;;;;;5.18;4.40;;;19.90;56.00;;;;;;4994460;28;20125;-61
2021/12/14 06:43:27;;;;;;;5.70;4.72;;;20.00;56.60;;;;;;4994631;28;20549;-61
2021/12/14 06:45:59;;;;;;;4.75;4.25;;;20.00;56.40;;;;;;4994645;28;20046;-61
2021/12/14 06:48:55;;;;;;;5.07;4.68;;;20.00;56.20;;;;;;4993890;28;20378;-61
2021/12/14 06:51:26;;;;;;;5.22;4.60;;;20.00;56.30;;;;;;4993216;28;20137;-61
2021/12/14 06:54:01;;;;;;;5.10;4.60;;;20.00;56.30;;;;;;4992842;28;20050;-61
2021/12/14 06:56:29;;;;;;;5.78;4.63;;;20.10;56.30;;;;;;4993913;28;20355;-61
2021/12/14 06:59:03;;;;;;;14.48;4.40;;;20.10;56.20;;;;;;4993986;28;20052;-61
2021/12/14 07:01:37;;;;;;;5.00;4.60;;;20.10;56.20;;;;;;4993769;28;20073;-60
2021/12/14 07:04:12;;;;;;;4.55;4.15;;;20.10;56.20;;;;;;4994315;28;20050;-61
2021/12/14 07:06:59;;;;;;;4.95;4.53;;;20.10;56.20;;;;;;4994288;28;20512;-60
2021/12/14 07:09:30;;;;;;;4.88;4.47;;;20.10;56.20;;;;;;4994050;28;20038;-61
2021/12/14 07:12:05;;;;;;;5.30;4.80;;;20.20;56.20;;;;;;4993936;28;20488;-60
2021/12/14 07:14:31;;;;;;;5.35;4.85;;;20.20;56.10;;;;;;4992278;28;20042;-60
2021/12/14 07:17:04;;;;;;;5.57;4.90;;;20.20;56.00;;;;;;4995188;28;20056;-61
2021/12/14 07:19:44;;;;;;;5.00;4.60;;;20.20;56.00;;;;;;4996643;28;20042;-59
2021/12/14 07:22:33;;;;;;;5.32;4.93;;;20.20;55.90;;;;;;4997793;28;20470;-61
2021/12/14 07:25:07;;;;;;;5.60;5.10;;;20.20;55.90;;;;;;4998116;28;20057;-61
2021/12/14 07:27:38;;;;;;;5.00;4.57;;;20.20;55.80;;;;;;4997428;28;20045;-61
2021/12/14 07:30:26;;;;;;;7.25;5.00;;;20.20;55.70;;;;;;4997882;28;20030;-61
2021/12/14 07:33:06;;;;;;;5.57;5.07;;;20.30;55.70;;;;;;4998105;28;20058;-61
2021/12/14 07:35:35;;;;;;;6.53;5.50;;;20.30;55.70;;;;;;4997504;28;20045;-61
2021/12/14 07:38:10;;;;;;;5.15;4.65;;;20.30;55.60;;;;;;4997117;28;20508;-61
2021/12/14 07:40:41;;;;;;;5.82;5.32;;;20.30;55.50;;;;;;4997384;28;20045;-61
2021/12/14 07:43:18;;;;;;;;;;;20.30;55.40;;;;;;4997716;28;20462;-61
2021/12/14 07:45:46;;;;;;;5.63;5.13;;;20.30;55.30;;;;;;4997238;28;19917;-61
2021/12/14 07:48:12;;;;;;;5.35;4.93;;;20.30;55.40;;;;;;4997113;28;20038;-60
2021/12/14 07:50:46;;;;;;;6.03;5.05;;;20.30;55.40;;;;;;4993378;28;20073;-60
2021/12/14 07:53:12;;;;;;;7.15;5.07;;;20.30;55.30;;;;;;4997152;28;20050;-62
2021/12/14 07:55:42;;;;;;;5.40;5.00;;;20.40;55.40;;;;;;4986554;28;20035;-60
2021/12/14 07:58:07;;;;;;;5.13;4.72;;;20.30;55.30;;;;;;4972357;28;20074;-58
2021/12/14 08:00:39;;;;;;;5.72;5.22;;;20.40;55.30;;;;;;4977464;28;20049;-60
2021/12/14 08:03:06;;;;;;;5.30;4.78;;;20.30;55.20;;;;;;4991808;28;20100;-60
2021/12/14 08:05:44;;;;;;;5.30;4.80;;;20.40;55.30;;;;;;4977421;28;20043;-60
2021/12/14 08:08:19;;;;;;;5.15;4.72;;;20.40;55.20;;;;;;4977892;28;20038;-60
2021/12/14 08:11:29;;;;;;;5.65;5.03;;;20.40;55.20;;;;;;4977872;28;20054;-60
2021/12/14 08:14:01;;;;;;;5.57;5.07;;;20.40;55.10;;;;;;4977295;28;20047;-60
2021/12/14 08:16:45;;;;;;;5.35;4.85;;;20.40;55.10;;;;;;4976298;28;20125;-60
2021/12/14 08:19:39;;;;;;;6.00;5.40;;;20.40;55.20;;;;;;4977804;28;20043;-60
2021/12/14 08:22:13;;;;;;;5.40;5.00;;;20.40;55.10;;;;;;4977547;28;20105;-60
2021/12/14 08:24:47;;;;;;;5.22;4.72;;;20.40;55.10;;;;;;4976772;28;20474;-59
2021/12/14 08:27:19;;;;;;;5.57;5.07;;;20.50;55.10;;;;;;4976979;28;20043;-59
2021/12/14 08:29:50;;;;;;;7.13;5.80;;;20.50;55.10;;;;;;4975243;28;20086;-59
2021/12/14 08:32:20;;;;;;;;;;;20.50;55.10;;;;;;4977966;28;20406;-59
2021/12/14 08:34:48;;;;;;;5.82;5.22;;;20.50;55.10;;;;;;4976954;28;20396;-59
2021/12/14 08:37:25;;;;;;;5.80;5.22;;;20.40;55.10;;;;;;4976902;28;20193;-60
2021/12/14 08:40:00;;;;;;;5.35;4.88;;;20.50;55.10;;;;;;4977168;28;20062;-60
2021/12/14 08:42:50;;;;;;;5.70;5.15;;;20.50;55.10;;;;;;4976853;28;20118;-59
2021/12/14 08:45:27;;;;;;;5.07;4.68;;;20.50;55.10;;;;;;4976814;28;20125;-59
2021/12/14 08:48:08;;;;;;;5.65;5.15;;;20.50;55.10;;;;;;4976193;28;20482;-59
2021/12/14 08:50:37;;;;;;;;;;;20.50;55.00;;;;;;4977103;28;20470;-59
2021/12/14 08:53:08;;;;;;;5.20;4.80;;;20.50;55.00;;;;;;4976257;28;20250;-59
2021/12/14 08:55:37;;;;;;;5.50;5.00;;;20.50;55.10;;;;;;4976607;28;20134;-58
2021/12/14 08:58:04;;;;;;;6.47;5.18;;;20.50;55.10;;;;;;4976434;28;20525;-60
2021/12/14 09:00:45;;;;;;;6.25;5.75;;;20.60;55.20;;;;;;4976265;28;20348;-60
2021/12/14 09:03:20;;;;;;;5.13;4.63;;;20.60;55.00;;;;;;4975642;28;20386;-60
2021/12/14 09:05:50;;;;;;;5.65;5.18;;;20.50;54.90;;;;;;4976484;28;20039;-59
2021/12/14 09:08:17;;;;;;;5.97;5.38;;;20.60;55.00;;;;;;4976337;28;20050;-59
2021/12/14 09:10:46;;;;;;;6.28;5.15;;;20.60;55.00;;;;;;4991977;28;20398;-59
2021/12/14 09:13:13;;;;;;;5.40;4.90;;;20.60;55.00;;;;;;4976271;28;20047;-59
2021/12/14 09:15:53;;;;;;;5.72;5.22;;;20.60;55.10;;;;;;4976224;28;20042;-59
2021/12/14 09:18:20;;;;;;;5.63;5.10;;;20.60;55.20;;;;;;4977729;28;20034;-59
2021/12/14 09:21:03;;;;;;;5.50;5.07;;;20.60;55.20;;;;;;4995600;28;20054;-59
2021/12/14 09:23:33;;;;;;;5.40;4.90;;;20.60;55.20;;;;;;4994736;28;20164;-59
2021/12/14 09:26:03;;;;;;;6.28;5.35;;;20.60;55.20;;;;;;4996147;28;20065;-59
2021/12/14 09:28:29;;;;;;;5.38;4.88;;;20.60;55.10;;;;;;4994014;28;20042;-59
2021/12/14 09:31:00;;;;;;;5.50;5.10;;;20.60;55.90;;;;;;4995307;28;20226;-59
2021/12/14 09:33:27;;;;;;;5.15;4.75;;;20.60;55.10;;;;;;4995413;28;20458;-59
2021/12/14 09:35:56;;;;;;;7.88;5.07;;;20.60;55.10;;;;;;4995218;28;20124;-59
2021/12/14 09:38:31;;;;;;;6.60;5.10;;;20.60;55.10;;;;;;4994201;28;20046;-59
2021/12/14 09:41:01;;;;;;;5.95;5.28;;;20.60;55.10;;;;;;4987818;28;20504;-59
2021/12/14 09:43:27;;;;;;;5.45;4.95;;;20.60;55.10;;;;;;4990916;28;20104;-58
2021/12/14 09:45:56;;;;;;;5.50;4.95;;;20.60;55.00;;;;;;4975549;28;20079;-59
2021/12/14 09:48:27;;;;;;;5.05;4.63;;;20.60;55.00;;;;;;4972148;28;20071;-59
2021/12/14 09:50:57;;;;;;;5.65;5.15;;;20.70;55.10;;;;;;4969996;28;20466;-59
2021/12/14 09:53:26;;;;;;;5.22;4.72;;;20.60;55.20;;;;;;4986985;28;20053;-59
2021/12/14 09:55:54;;;;;;;5.30;4.90;;;20.60;55.10;;;;;;4989104;28;20046;-59
2021/12/14 09:58:28;;;;;;;4.93;4.45;;;20.70;55.20;;;;;;4990203;28;20421;-60
2021/12/14 10:00:59;;;;;;;7.30;5.03;;;20.70;55.20;;;;;;4991620;28;20466;-59
2021/12/14 10:03:25;;;;;;;5.13;4.65;;;20.70;55.10;;;;;;4995476;28;20570;-59
2021/12/14 10:06:06;;;;;;;5.22;4.72;;;20.70;55.10;;;;;;4994697;28;20042;-59
2021/12/14 10:08:42;;;;;;;5.30;4.90;;;20.70;55.20;;;;;;4994923;28;20053;-59
2021/12/14 10:11:23;;;;;;;5.43;4.90;;;20.70;55.20;;;;;;4994679;28;20117;-59
2021/12/14 10:13:50;;;;;;;5.15;4.75;;;20.70;55.20;;;;;;4995115;28;20084;-59
2021/12/14 10:16:15;;;;;;;5.22;4.72;;;20.70;55.30;;;;;;4976892;28;20049;-59
2021/12/14 10:18:46;;;;;;;5.40;4.90;;;20.70;55.20;;;;;;4994448;28;20042;-59
2021/12/14 10:21:17;;;;;;;5.45;4.97;;;20.70;55.20;;;;;;4994673;28;20133;-59
2021/12/14 10:23:47;;;;;;;4.85;4.45;;;20.70;55.20;;;;;;4995221;28;20149;-59
2021/12/14 10:26:16;;;;;;;5.60;5.10;;;20.70;55.20;;;;;;4994624;28;20437;-59
2021/12/14 10:28:46;;;;;;;5.13;4.60;;;20.70;55.20;;;;;;4994383;28;20081;-59
2021/12/14 10:31:20;;;;;;;5.40;5.00;;;20.70;55.20;;;;;;4990117;28;20458;-59
2021/12/14 10:33:45;;;;;;;5.28;4.80;;;20.70;55.20;;;;;;4987571;28;20043;-59
2021/12/14 10:36:25;;;;;;;5.78;4.70;;;20.70;55.20;;;;;;4974832;28;20046;-59
2021/12/14 10:44:14;;;;;;;4.95;4.47;;;20.70;55.10;;;;;;4994251;28;20053;-59
2021/12/14 10:46:48;;;;;;;6.10;4.82;;;20.70;55.10;;;;;;4994007;28;20125;-59
2021/12/14 10:49:17;;;;;;;5.88;4.82;;;20.70;55.00;;;;;;4993015;28;20038;-59
2021/12/14 10:51:45;;;;;;;5.00;4.50;;;20.70;55.00;;;;;;4993484;28;20038;-59
2021/12/14 10:54:14;;;;;;;5.35;4.85;;;20.70;54.90;;;;;;4994522;28;20101;-59
2021/12/14 10:56:42;;;;;;;4.78;4.28;;;20.70;54.90;;;;;;4993953;28;20038;-59
2021/12/14 10:59:11;;;;;;;4.82;4.35;;;20.70;54.90;;;;;;4993517;28;20035;-58
2021/12/14 11:01:39;;;;;;;5.32;4.82;;;20.70;54.90;;;;;;4993623;28;20054;-59
2021/12/14 11:04:09;;;;;;;4.95;4.45;;;20.70;54.90;;;;;;4993877;28;20085;-59
2021/12/14 11:06:37;;;;;;;5.00;4.60;;;20.70;54.90;;;;;;4994364;28;20042;-59
2021/12/14 11:11:43;;;;;;;4.82;4.43;;;20.70;54.90;;;;;;4993493;28;20050;-59
2021/12/14 11:14:11;;;;;;;5.05;4.55;;;20.70;54.90;;;;;;4994408;28;20097;-59
2021/12/14 11:19:52;;;;;;;5.63;4.60;;;20.70;55.00;;;;;;4974338;28;20078;-59
2021/12/14 11:22:23;;;;;;;4.82;4.30;;;20.70;55.10;;;;;;4976438;28;20046;-59
2021/12/14 11:24:59;;;;;;;4.68;4.28;;;20.70;55.10;;;;;;4989902;28;20046;-59
2021/12/14 11:27:30;;;;;;;5.13;4.63;;;20.70;55.10;;;;;;4970236;28;20038;-59
2021/12/14 11:30:30;;;;;;;4.72;4.05;;;20.70;55.10;;;;;;4988441;28;20134;-59
2021/12/14 11:33:15;;;;;;;4.80;4.40;;;20.70;55.10;;;;;;4985652;28;20561;-59
2021/12/14 11:35:50;;;;;;;4.57;4.18;;;20.70;55.20;;;;;;4981917;28;20478;-59
2021/12/14 11:38:26;;;;;;;6.55;4.55;;;20.70;55.30;;;;;;4991807;28;20043;-58
2021/12/14 11:40:52;;;;;;;4.90;4.38;;;20.70;55.20;;;;;;4974247;28;20045;-59
2021/12/14 11:43:22;;;;;;;4.40;4.10;;;20.70;55.20;;;;;;4968423;28;20126;-58
2021/12/14 11:45:49;;;;;;;4.33;3.90;;;20.70;55.30;;;;;;4992448;28;20041;-59
2021/12/14 11:48:26;;;;;;;5.13;4.20;;;20.70;55.30;;;;;;4992520;28;20125;-59
2021/12/14 11:50:52;;;;;;;5.30;4.40;;;20.70;55.30;;;;;;4992699;28;20413;-59
2021/12/14 11:53:20;;;;;;;11.38;4.80;;;20.70;55.40;;;;;;4991969;28;20038;-58
2021/12/14 11:55:50;;;;;;;4.63;4.22;;;20.70;55.40;;;;;;4993451;28;20042;-59
2021/12/14 11:58:35;;;;;;;5.17;4.53;;;20.70;55.40;;;;;;4993571;28;20121;-59
2021/12/14 12:01:22;;;;;;;4.60;4.13;;;20.70;55.50;;;;;;4993133;28;20378;-59
2021/12/14 12:03:48;;;;;;;4.95;4.30;;;20.70;55.50;;;;;;4994663;28;20038;-59
2021/12/14 12:11:57;;;;;;;6.53;3.65;;;20.70;55.80;;;;;;4996803;28;20368;-60
2021/12/14 12:14:26;;;;;;;5.45;4.18;;;20.70;55.90;;;;;;4996731;28;20054;-60
2021/12/14 12:16:56;;;;;;;5.00;3.13;;;20.70;55.80;;;;;;4996684;28;20078;-60
2021/12/14 12:19:27;;;;;;;4.07;3.70;;;20.70;55.70;;;;;;4996709;28;20124;-60
2021/12/14 12:21:54;;;;;;;4.18;3.83;;;20.70;55.80;;;;;;4997160;28;20503;-61
2021/12/14 12:24:39;;;;;;;5.25;3.78;;;20.70;55.70;;;;;;4997099;28;20085;-60
2021/12/14 12:27:31;;;;;;;4.30;3.65;;;20.70;55.70;;;;;;4996397;28;20428;-60
2021/12/14 12:30:23;;;;;;;4.93;3.72;;;20.70;55.70;;;;;;4996536;28;20052;-61
2021/12/14 12:32:50;;;;;;;3.67;3.38;;;20.70;55.70;;;;;;4996518;28;20046;-60
2021/12/14 12:35:33;;;;;;;4.40;3.60;;;20.70;55.80;;;;;;4995714;28;20044;-60
2021/12/14 12:38:14;;;;;;;4.95;3.47;;;20.70;55.80;;;;;;4996074;28;20042;-61
2021/12/14 12:40:49;;;;;;;3.80;3.30;;;20.60;55.70;;;;;;4996363;28;20047;-61
2021/12/14 12:43:23;;;;;;;3.50;3.20;;;20.70;55.70;;;;;;4996442;28;20049;-63
2021/12/14 12:46:14;;;;;;;3.55;3.25;;;20.60;55.70;;;;;;4996353;28;20046;-63
2021/12/14 12:48:42;;;;;;;;;;;20.60;55.60;;;;;;4994070;28;20056;-62
2021/12/14 12:51:08;;;;;;;3.28;3.00;;;20.60;55.70;;;;;;4996625;28;19917;-60
2021/12/14 12:53:34;;;;;;;3.47;3.17;;;20.60;55.80;;;;;;4994914;28;20046;-60
2021/12/14 12:56:09;;;;;;;3.75;3.45;;;20.60;55.70;;;;;;4995709;28;20081;-62
2021/12/14 12:58:37;;;;;;;4.90;3.25;;;20.60;55.70;;;;;;4995942;28;20474;-60
2021/12/14 13:01:03;;;;;;;3.53;3.22;;;20.60;55.70;;;;;;4995622;28;20100;-62
2021/12/14 13:03:34;;;;;;;3.70;2.97;;;20.60;55.60;;;;;;4995939;28;20045;-62
2021/12/14 13:06:14;;;;;;;3.25;2.95;;;20.60;55.60;;;;;;4995966;28;20050;-62
2021/12/14 13:08:47;;;;;;;3.35;3.05;;;20.60;55.60;;;;;;4995808;28;20080;-61
2021/12/14 13:11:17;;;;;;;3.63;3.33;;;20.60;55.70;;;;;;4995831;28;20478;-61
2021/12/14 13:13:51;;;;;;;3.83;3.53;;;20.60;55.70;;;;;;4995929;28;20042;-63
2021/12/14 13:16:44;;;;;;;3.65;3.33;;;20.60;55.70;;;;;;4995837;28;20042;-64
2021/12/14 13:19:18;;;;;;;3.53;3.22;;;20.60;55.60;;;;;;4995733;28;20547;-63
2021/12/14 13:21:57;;;;;;;3.70;3.40;;;20.60;55.60;;;;;;4995429;28;20062;-62
2021/12/14 13:24:37;;;;;;;4.20;3.90;;;20.60;55.50;;;;;;4995514;28;20061;-61
2021/12/14 13:27:21;;;;;;;4.18;3.60;;;20.60;55.50;;;;;;4993885;28;20548;-62
2021/12/14 13:29:59;;;;;;;3.78;3.47;;;20.60;55.50;;;;;;4995125;28;20474;-61
2021/12/14 13:32:37;;;;;;;3.67;3.38;;;20.60;55.40;;;;;;4995964;28;20322;-63
2021/12/14 13:35:08;;;;;;;4.40;4.00;;;20.60;55.40;;;;;;4995307;28;20038;-63
2021/12/14 13:37:40;;;;;;;4.45;4.05;;;20.60;55.40;;;;;;4978799;28;20101;-60
2021/12/14 13:40:12;;;;;;;3.95;3.65;;;20.60;55.40;;;;;;4994701;28;20319;-64
2021/12/14 13:42:41;;;;;;;4.93;3.67;;;20.60;55.50;;;;;;4995638;28;20089;-61
2021/12/14 13:45:14;;;;;;;4.43;3.90;;;20.60;55.40;;;;;;4993870;28;20034;-62
2021/12/14 13:47:40;;;;;;;5.00;3.80;;;20.60;55.40;;;;;;4994194;28;20038;-62
2021/12/14 13:50:10;;;;;;;20.45;15.88;;;20.60;55.40;;;;;;4995038;28;20049;-62
2021/12/14 13:52:36;;;;;;;30.48;22.00;;;20.60;55.40;;;;;;4994984;28;20132;-62